This is the latest recevied weather packets stored in our database for station/object S50APT-10. If no packets are shown the sender has not sent any weather packets the latest 10 day(s).
| Time | Temp. | Humidity | Pressure | Rain* | Wind** | Luminosity | Snow |
|---|---|---|---|---|---|---|---|
| 1777631935 | 18.89° C | 26% | 1029.7 hPa | - | - | - | - |
| 1777631024 | 18.33° C | 28% | 1029.8 hPa | - | - | - | - |
| 1777630113 | 23.89° C | 22% | 1029.8 hPa | - | - | - | - |
| 1777629197 | 20° C | 25% | 1030.1 hPa | - | - | - | - |
| 1777628278 | 22.22° C | 23% | 1030.2 hPa | - | - | - | - |
| 1777627362 | 20° C | 25% | 1030.2 hPa | - | - | - | - |
| 1777626451 | 15.56° C | 28% | 1030.3 hPa | - | - | - | - |
| 1777625544 | 16.67° C | 28% | 1030.5 hPa | - | - | - | - |
| 1777624624 | 18.89° C | 25% | 1030.5 hPa | - | - | - | - |
| 1777622791 | 15.56° C | 27% | 1030.4 hPa | - | - | - | - |
| 1777621880 | 18.33° C | 26% | 1030.4 hPa | - | - | - | - |
| 1777620971 | 16.67° C | 28% | 1030.4 hPa | - | - | - | - |
| 1777620067 | 14.44° C | 30% | 1030.4 hPa | - | - | - | - |
| 1777619677 | 15° C | 29% | 1030.3 hPa | - | - | - | - |
| 1777619152 | 15° C | 29% | 1030.3 hPa | - | - | - | - |
| 1777618672 | 12.78° C | 32% | 1030.3 hPa | - | - | - | - |
| 1777618252 | 12.78° C | 32% | 1030.3 hPa | - | - | - | - |
| 1777617348 | 13.33° C | 30% | 1030.2 hPa | - | - | - | - |
| 1777616684 | 13.89° C | 33% | 1030.1 hPa | - | - | - | - |
| 1777615355 | 12.22° C | 34% | 1029.9 hPa | - | - | - | - |
| 1777614361 | 10.56° C | 36% | 1029.8 hPa | - | - | - | - |
| 1777613368 | 8.89° C | 37% | 1029.8 hPa | - | - | - | - |
| 1777612374 | 7.78° C | 37% | 1029.7 hPa | - | - | - | - |
| 1777611380 | 7.22° C | 38% | 1029.6 hPa | - | - | - | - |
| 1777610387 | 6.67° C | 39% | 1029.5 hPa | - | - | - | - |
* Rain since midnight (hover to see other rain measurements)
** Current wind speed in m/s (hover to see current wind gust speed)